Decoded Metar for PAHP (HOOPER BAY in AK, USA) (IATA:HPB) | Meteo·Mobile Aviation Weather
aviador You're here:

PAHP Decoded Metar

HOOPER BAY in AK, USA
Report Time2019-09-21 05:56:00
UTC Time2019-09-21 06:41:28
Flight Rules vfr VFR
Wind120° at 03 kt
W.Decomp.*RWY 13: 2.8 kt HW 1.2 kt LCW
Visibility9999 m
Phenomena:N/A
Clouds:N/A
Expected CloudBase > 800 ft AGL from Temp-Dew spread
CeilingNone
Temp05°C (ISA -10)
Dew Point03°C (87% RH)
AAT2.4°C
QNH1002 hPa
Density Alt-709 ft
Elevation16 ft
Report Wrong Elevation
Raw Report
PAHP 210556Z AUTO 12003KT 10SM CLR 05/03 A2959 RMK AO2 SLP056
6//// T00500033 10089 20044 56008 PNO $=

Extra information for PAHP:More info

Metar Taf Metar & Taf Last 4 Metars F.Rules Stats Wind Profile Meteogram Temp Stats Airport Information Weather charts Add Link Nearby VenuesMetar ALERT Operation Metar Decoded Social comments

AIRNAV info for PAHP